METAR Data
IDs: Format: Raw Decoded Include TAF

Data at: 2204 UTC 18 Sep 2018

KLXT 182153Z AUTO 21011KT 10SM CLR 33/21 A2988 RMK AO2 SLP108 T03280211
KLXT 182053Z AUTO 20010KT 10SM FEW060 33/21 A2989 RMK AO2 SLP109 T03280206 56020
KLXT 181953Z AUTO 22008G17KT 170V250 10SM FEW050 33/22 A2990 RMK AO2 SLP113 T03280217
KLXT 181853Z AUTO 21009G16KT 10SM CLR 33/22 A2993 RMK AO2 SLP123 T03330217
KLXT 181753Z AUTO 24011KT 10SM BKN085 32/21 A2995 RMK AO2 SLP131 T03170211 10322 20239 58008
KLXT 181653Z AUTO 24011KT 10SM FEW080 31/22 A2997 RMK AO2 SLP136 T03110222
KLXT 181553Z AUTO 23010KT 10SM CLR 30/22 A2997 RMK AO2 SLP139 T03000222
KLXT 181453Z AUTO 21008KT 10SM CLR 28/22 A2998 RMK AO2 SLP139 T02780217 58001
KLXT 181353Z AUTO 21008KT 10SM CLR 26/21 A2999 RMK AO2 SLP143 T02560211
KLXT 181253Z AUTO 19006KT 10SM CLR 24/21 A2999 RMK AO2 SLP143 T02440206
KLXT 181153Z AUTO 19007KT 10SM CLR 24/20 A2998 RMK AO2 SLP141 T02390200 10250 20233 53004
KLXT 181053Z AUTO 19007KT 10SM CLR 24/20 A2997 RMK AO2 SLP138 T02390200
KLXT 180953Z AUTO 19008KT 10SM CLR 24/20 A2997 RMK AO2 SLP136 T02390200
KLXT 180853Z AUTO 19008KT 10SM CLR 24/20 A2997 RMK AO2 SLP137 T02440200 56004
KLXT 180753Z AUTO 19006KT 10SM CLR 24/21 A2997 RMK AO2 SLP138 T02440206
KLXT 180653Z AUTO 18007KT 10SM CLR 25/21 A2997 RMK AO2 SLP139 T02500206
KLXT 180553Z AUTO 17006KT 10SM CLR 25/21 A2998 RMK AO2 SLP141 T02500211 10294 20244 403220194 50003
KLXT 180453Z AUTO 17005KT 10SM CLR 25/21 A2998 RMK AO2 SLP142 T02500211
KLXT 180353Z AUTO 14006KT 10SM CLR 26/21 A2998 RMK AO2 SLP140 T02560206 TSNO
KLXT 180253Z AUTO 15006KT 10SM CLR 26/21 A2997 RMK AO2 SLP138 T02610211 53010 TSNO
KLXT 180153Z AUTO 15005KT 10SM CLR 27/21 A2996 RMK AO2 SLP136 T02720211
KLXT 180053Z AUTO 10SM FEW100 29/21 A2994 RMK AO2 SLP130 T02890206
KLXT 172353Z AUTO 18006KT 10SM CLR 29/21 A2994 RMK AO2 SLP130 T02940206 10322 20294 55001
KLXT 172253Z AUTO 23005KT 10SM SCT095 30/20 A2994 RMK AO2 SLP129 T03000200
KLXT 172153Z AUTO 23007KT 10SM BKN095 31/19 A2994 RMK AO2 SLP128 T03110194
KLXT 172053Z AUTO 23008KT 10SM SCT050 SCT070 BKN090 32/19 A2995 RMK AO2 SLP129 T03170189 56016
KLXT 171953Z AUTO 23005KT 10SM SCT050 BKN065 31/20 A2995 RMK AO2 SLP133 T03110200
KLXT 171853Z AUTO 24005KT 10SM CLR 31/21 A2997 RMK AO2 SLP139 T03110206
KLXT 171753Z AUTO 20007KT 10SM CLR 31/19 A2999 RMK AO2 SLP146 T03060189 10311 20200 58006
KLXT 171653Z AUTO 17007KT 10SM CLR 31/20 A3001 RMK AO2 SLP150 T03060200
KLXT 171553Z AUTO 20006KT 10SM CLR 29/19 A3001 RMK AO2 SLP153 T02940194
KLXT 171453Z AUTO 22004KT 10SM CLR 27/19 A3001 RMK AO2 SLP153 T02720194 51008
KLXT 171353Z AUTO 22004KT 10SM CLR 24/20 A3001 RMK AO2 SLP151 T02440200
KLXT 171253Z AUTO 00000KT 10SM FEW070 22/19 A3000 RMK AO2 SLP151 T02170194
KLXT 171153Z AUTO 15003KT 10SM CLR 20/19 A2999 RMK AO2 SLP146 T02000189 10233 20194 53004
KLXT 171053Z AUTO 00000KT 10SM CLR 20/18 A2998 RMK AO2 SLP143 T02000183